createdAt,value
2019-06-08T00:00:54.864Z,77.50
2019-06-08T00:03:23.483Z,78.40
2019-06-08T00:05:52.138Z,78.00
2019-06-08T00:08:21.027Z,78.70
2019-06-08T00:10:49.791Z,79.00
2019-06-08T00:13:19.776Z,78.90
2019-06-08T00:15:48.520Z,79.30
2019-06-08T00:18:17.410Z,79.30
2019-06-08T00:20:46.131Z,79.40
2019-06-08T00:23:15.735Z,79.50
2019-06-08T00:25:44.358Z,79.70
2019-06-08T00:28:14.138Z,78.90
2019-06-08T00:30:42.811Z,79.40
2019-06-08T00:33:11.580Z,80.20
2019-06-08T00:35:40.246Z,79.00
2019-06-08T00:38:08.918Z,78.40
2019-06-08T00:40:37.548Z,79.60
2019-06-08T00:43:06.214Z,78.20
2019-06-08T00:45:34.829Z,77.50
2019-06-08T00:48:03.534Z,78.00
2019-06-08T00:50:32.171Z,79.60
2019-06-08T00:53:00.877Z,79.70
2019-06-08T00:55:29.950Z,80.20
2019-06-08T00:57:58.710Z,80.10
2019-06-08T01:00:27.437Z,79.80
2019-06-08T01:02:56.097Z,78.80
2019-06-08T01:05:25.997Z,78.30
2019-06-08T01:07:54.675Z,77.80
2019-06-08T01:10:25.413Z,78.10
2019-06-08T01:12:54.316Z,77.80
2019-06-08T01:15:29.141Z,77.40
2019-06-08T01:18:03.503Z,77.50
2019-06-08T01:20:25.453Z,78.80
2019-06-08T01:22:54.295Z,78.20
2019-06-08T01:25:23.704Z,77.40
2019-06-08T01:27:52.551Z,78.70
2019-06-08T01:30:22.186Z,78.40
2019-06-08T01:32:51.048Z,77.30
2019-06-08T01:35:20.803Z,78.10
2019-06-08T01:37:49.731Z,78.70
2019-06-08T01:40:18.540Z,78.20
2019-06-08T01:42:47.285Z,78.30
2019-06-08T01:45:18.487Z,78.20
2019-06-08T01:47:47.134Z,78.60
2019-06-08T01:50:15.758Z,78.80
2019-06-08T01:52:44.387Z,80.00
2019-06-08T01:55:13.432Z,79.10
2019-06-08T01:57:42.065Z,78.70
2019-06-08T02:00:29.265Z,79.10
2019-06-08T02:02:41.371Z,78.10
2019-06-08T02:05:10.173Z,78.10
2019-06-08T02:07:38.865Z,78.00
2019-06-08T02:10:08.740Z,77.60
2019-06-08T02:12:37.524Z,77.20
2019-06-08T02:15:07.096Z,77.80
2019-06-08T02:17:36.727Z,78.20
2019-06-08T02:20:07.884Z,78.70
2019-06-08T02:22:36.899Z,79.20
2019-06-08T02:25:06.488Z,79.00
2019-06-08T02:27:35.789Z,79.00
2019-06-08T02:30:10.393Z,79.20
2019-06-08T02:32:40.465Z,79.60
2019-06-08T02:35:10.087Z,79.00
2019-06-08T02:37:39.891Z,78.80
2019-06-08T02:40:09.595Z,79.20
2019-06-08T02:42:40.032Z,78.80
2019-06-08T02:45:09.348Z,78.10
2019-06-08T02:47:38.002Z,79.10
2019-06-08T02:50:08.003Z,79.90
2019-06-08T02:52:40.582Z,79.20
2019-06-08T02:55:09.706Z,78.60
2019-06-08T02:57:40.277Z,79.00
2019-06-08T03:00:11.534Z,79.00
2019-06-08T03:02:44.592Z,78.90
2019-06-08T03:05:13.791Z,79.30
2019-06-08T03:07:45.612Z,78.70
2019-06-08T03:10:15.243Z,78.70
2019-06-08T03:12:45.831Z,78.30
2019-06-08T03:15:17.624Z,78.10
2019-06-08T03:17:46.230Z,78.70
2019-06-08T03:20:15.134Z,77.30
2019-06-08T03:22:44.175Z,78.30
2019-06-08T03:25:13.258Z,77.80
2019-06-08T03:27:43.134Z,78.10
2019-06-08T03:30:18.984Z,77.80
2019-06-08T03:32:51.529Z,77.10
2019-06-08T03:35:13.789Z,77.10
2019-06-08T03:37:44.313Z,77.30
2019-06-08T03:40:13.074Z,77.30
2019-06-08T03:42:41.735Z,77.10
2019-06-08T03:45:10.803Z,77.60
2019-06-08T03:47:41.327Z,76.40
2019-06-08T03:50:10.095Z,76.90
2019-06-08T03:52:39.969Z,77.70
2019-06-08T03:55:09.198Z,77.70
2019-06-08T03:57:38.286Z,77.70
2019-06-08T04:00:13.268Z,77.40
2019-06-08T04:02:41.778Z,77.10
2019-06-08T04:05:10.347Z,76.60
2019-06-08T04:07:39.881Z,76.20
2019-06-08T04:10:08.876Z,75.80
2019-06-08T04:12:37.754Z,75.90
2019-06-08T04:15:08.179Z,75.00
2019-06-08T04:17:37.916Z,75.30
2019-06-08T04:20:11.622Z,74.70
2019-06-08T04:22:41.818Z,74.80
2019-06-08T04:25:10.049Z,74.30
2019-06-08T04:27:40.262Z,73.40
2019-06-08T04:30:09.978Z,74.20
2019-06-08T04:32:38.673Z,73.90
2019-06-08T04:35:08.374Z,73.50
2019-06-08T04:37:38.221Z,73.30
2019-06-08T04:40:08.569Z,73.10
2019-06-08T04:42:37.268Z,73.20
2019-06-08T04:45:08.631Z,73.10
2019-06-08T04:47:38.440Z,72.70
2019-06-08T04:50:21.748Z,72.40
2019-06-08T04:52:39.059Z,73.00
2019-06-08T04:55:08.353Z,72.20
2019-06-08T04:57:39.215Z,71.80
2019-06-08T05:00:13.111Z,72.40
2019-06-08T05:02:39.766Z,72.10
2019-06-08T05:05:09.658Z,72.50
2019-06-08T05:07:39.275Z,72.30
2019-06-08T05:10:09.760Z,73.00
2019-06-08T05:12:39.182Z,71.90
2019-06-08T05:15:08.685Z,71.90
2019-06-08T05:17:37.338Z,71.90
2019-06-08T05:20:07.048Z,71.90
2019-06-08T05:22:35.736Z,72.80
2019-06-08T05:25:05.652Z,71.40
2019-06-08T05:27:34.263Z,71.30
2019-06-08T05:30:08.341Z,71.90
2019-06-08T05:32:33.230Z,71.10
2019-06-08T05:35:01.887Z,72.20
2019-06-08T05:37:30.532Z,70.40
2019-06-08T05:39:59.184Z,71.60
2019-06-08T05:42:27.835Z,70.40
2019-06-08T05:44:56.555Z,70.30
2019-06-08T05:47:25.299Z,71.30
2019-06-08T05:49:53.906Z,70.70
2019-06-08T05:52:22.542Z,70.50
2019-06-08T05:54:51.198Z,71.50
2019-06-08T05:57:19.886Z,69.60
2019-06-08T05:59:48.619Z,70.50
2019-06-08T06:02:17.262Z,70.60
2019-06-08T06:04:46.389Z,69.90
2019-06-08T06:07:15.054Z,68.90
2019-06-08T06:09:45.138Z,68.50
2019-06-08T06:12:13.895Z,70.30
2019-06-08T06:14:42.806Z,70.20
2019-06-08T06:17:11.690Z,69.20
2019-06-08T06:19:41.052Z,68.40
2019-06-08T06:22:09.880Z,66.60
2019-06-08T06:24:38.508Z,67.50
2019-06-08T06:27:07.135Z,66.70
2019-06-08T06:29:35.782Z,66.80
2019-06-08T06:32:04.956Z,64.70
2019-06-08T06:34:33.646Z,64.30
2019-06-08T06:37:02.337Z,64.20
2019-06-08T06:39:30.983Z,63.00
2019-06-08T06:41:59.632Z,63.00
2019-06-08T06:44:28.378Z,63.90
2019-06-08T06:46:57.002Z,62.20
2019-06-08T06:49:25.750Z,63.60
2019-06-08T06:51:54.396Z,59.90
2019-06-08T06:54:23.071Z,60.10
2019-06-08T06:56:51.926Z,58.40
2019-06-08T06:59:20.682Z,57.60
2019-06-08T07:01:52.785Z,58.00
2019-06-08T07:04:19.838Z,56.40
2019-06-08T07:06:48.627Z,56.00
2019-06-08T07:09:17.240Z,57.70
2019-06-08T07:11:46.864Z,57.00
2019-06-08T07:14:15.632Z,55.10
2019-06-08T07:16:44.262Z,56.30
2019-06-08T07:19:12.917Z,55.50
2019-06-08T07:21:42.287Z,54.80
2019-06-08T07:24:11.019Z,55.40
2019-06-08T07:26:39.678Z,53.00
2019-06-08T07:29:08.304Z,52.70
2019-06-08T07:31:36.965Z,51.90
2019-06-08T07:34:05.588Z,52.00
2019-06-08T07:36:34.260Z,51.50
2019-06-08T07:39:02.897Z,51.10
2019-06-08T07:41:31.546Z,52.60
2019-06-08T07:44:00.211Z,50.90
2019-06-08T07:46:28.936Z,51.10
2019-06-08T07:48:58.632Z,49.50
2019-06-08T07:51:27.533Z,51.10
2019-06-08T07:53:56.178Z,50.00
2019-06-08T07:56:24.992Z,49.30
2019-06-08T07:58:54.921Z,50.20
2019-06-08T08:01:35.772Z,50.00
2019-06-08T08:03:54.220Z,48.50
2019-06-08T08:06:23.044Z,50.10
2019-06-08T08:08:52.624Z,50.00
2019-06-08T08:11:21.342Z,49.70
2019-06-08T08:13:51.430Z,48.40
2019-06-08T08:16:20.258Z,48.40
2019-06-08T08:18:51.589Z,50.50
2019-06-08T08:21:25.936Z,49.10
2019-06-08T08:23:51.675Z,50.80
2019-06-08T08:26:20.446Z,51.10
2019-06-08T08:28:51.753Z,51.10
2019-06-08T08:31:19.438Z,51.50
2019-06-08T08:33:49.866Z,47.00
2019-06-08T08:36:21.024Z,48.80
2019-06-08T08:38:50.182Z,48.70
2019-06-08T08:41:19.077Z,45.30
2019-06-08T08:43:48.523Z,46.10
2019-06-08T08:46:18.000Z,46.20
2019-06-08T08:48:48.641Z,47.30
2019-06-08T08:51:17.985Z,48.30
2019-06-08T08:53:48.147Z,46.60
2019-06-08T08:56:18.090Z,45.50
2019-06-08T08:58:47.795Z,46.80
2019-06-08T09:01:20.233Z,47.20
2019-06-08T09:03:48.207Z,44.80
2019-06-08T09:06:18.153Z,45.40
2019-06-08T09:08:48.506Z,43.80
2019-06-08T09:11:17.581Z,43.80
2019-06-08T09:13:48.673Z,44.20
2019-06-08T09:16:17.700Z,43.50
2019-06-08T09:18:48.003Z,43.80
2019-06-08T09:21:18.672Z,42.60
2019-06-08T09:23:48.631Z,43.90
2019-06-08T09:26:17.727Z,43.20
2019-06-08T09:28:46.511Z,43.90
2019-06-08T09:31:15.515Z,42.70
2019-06-08T09:33:53.290Z,41.20
2019-06-08T09:36:14.537Z,42.60
2019-06-08T09:38:43.215Z,42.40
2019-06-08T09:41:11.891Z,41.80
2019-06-08T09:43:40.523Z,41.30
2019-06-08T09:46:09.547Z,41.90
2019-06-08T09:48:38.344Z,43.10
2019-06-08T09:51:09.410Z,42.50
2019-06-08T09:53:41.205Z,42.30
2019-06-08T09:56:09.725Z,42.10
2019-06-08T09:58:39.095Z,41.80
2019-06-08T10:01:09.110Z,43.00
2019-06-08T10:03:39.192Z,42.10
2019-06-08T10:06:11.585Z,39.50
2019-06-08T10:08:38.866Z,39.60
2019-06-08T10:11:09.626Z,40.50
2019-06-08T10:13:39.120Z,40.70
2019-06-08T10:16:10.330Z,38.50
2019-06-08T10:18:38.764Z,40.60
2019-06-08T10:21:09.656Z,40.10
2019-06-08T10:23:38.535Z,38.40
2019-06-08T10:26:08.206Z,39.10
2019-06-08T10:28:38.865Z,39.80
2019-06-08T10:31:07.376Z,39.10
2019-06-08T10:33:40.252Z,40.90
2019-06-08T10:36:12.348Z,39.30
2019-06-08T10:38:38.398Z,40.00
2019-06-08T10:41:15.736Z,41.10
2019-06-08T10:43:38.560Z,39.60
2019-06-08T10:46:15.622Z,41.00
2019-06-08T10:48:37.992Z,42.00
2019-06-08T10:51:10.466Z,41.50
2019-06-08T10:53:46.498Z,41.70
2019-06-08T10:56:10.227Z,41.60
2019-06-08T10:58:37.947Z,42.50
2019-06-08T11:01:10.705Z,39.80
2019-06-08T11:03:38.847Z,39.90
2019-06-08T11:06:12.369Z,40.70
2019-06-08T11:08:39.004Z,42.40
2019-06-08T11:11:11.580Z,39.30
2019-06-08T11:13:38.253Z,39.90
2019-06-08T11:16:12.655Z,40.00
2019-06-08T11:18:37.296Z,39.30
2019-06-08T11:21:07.516Z,39.70
2019-06-08T11:23:38.474Z,38.40
2019-06-08T11:26:13.724Z,38.70
2019-06-08T11:28:38.287Z,38.20
2019-06-08T11:31:13.250Z,39.70
2019-06-08T11:33:38.994Z,38.40
2019-06-08T11:36:12.168Z,38.50
2019-06-08T11:38:38.269Z,37.30
2019-06-08T11:41:10.295Z,40.00
2019-06-08T11:43:38.141Z,39.20
2019-06-08T11:46:08.345Z,39.40
2019-06-08T11:48:41.012Z,39.70
2019-06-08T11:51:10.557Z,39.50
2019-06-08T11:53:38.454Z,39.80
2019-06-08T11:56:09.610Z,40.30
2019-06-08T11:58:39.403Z,40.70
2019-06-08T12:01:12.865Z,42.20
2019-06-08T12:03:39.703Z,40.30
2019-06-08T12:06:10.416Z,40.80
2019-06-08T12:08:38.784Z,41.40
2019-06-08T12:11:10.662Z,41.50
2019-06-08T12:13:38.029Z,41.30
2019-06-08T12:16:10.553Z,41.90
2019-06-08T12:18:40.130Z,42.80
2019-06-08T12:21:08.655Z,42.10
2019-06-08T12:23:37.724Z,42.20
2019-06-08T12:26:06.375Z,43.50
2019-06-08T12:28:34.988Z,41.70
2019-06-08T12:31:04.674Z,40.90
2019-06-08T12:33:33.399Z,42.70
2019-06-08T12:36:02.082Z,41.90
2019-06-08T12:38:34.253Z,41.30
2019-06-08T12:41:01.072Z,40.80
2019-06-08T12:43:29.683Z,40.60
2019-06-08T12:45:58.438Z,41.40
2019-06-08T12:48:28.728Z,42.50
2019-06-08T12:50:57.532Z,40.40
2019-06-08T12:53:28.128Z,42.50
2019-06-08T12:55:57.898Z,42.70
2019-06-08T12:58:27.589Z,42.20
2019-06-08T13:00:57.975Z,41.40
2019-06-08T13:03:27.740Z,40.20
2019-06-08T13:05:57.532Z,40.10
2019-06-08T13:08:28.518Z,40.70
2019-06-08T13:10:57.494Z,39.90
2019-06-08T13:13:28.253Z,41.10
2019-06-08T13:15:58.018Z,40.20
2019-06-08T13:18:26.766Z,41.90
2019-06-08T13:20:55.471Z,40.60
2019-06-08T13:23:24.146Z,41.50
2019-06-08T13:25:52.779Z,41.30
2019-06-08T13:28:25.047Z,40.00
2019-06-08T13:30:51.718Z,42.00
2019-06-08T13:33:20.372Z,41.80
2019-06-08T13:35:49.046Z,42.10
2019-06-08T13:38:21.295Z,40.40
2019-06-08T13:40:49.516Z,40.10
2019-06-08T13:43:20.113Z,42.60
2019-06-08T13:45:51.336Z,41.70
2019-06-08T13:48:20.535Z,41.60
2019-06-08T13:50:49.916Z,42.10
2019-06-08T13:53:26.339Z,42.10
2019-06-08T13:55:56.385Z,42.90
2019-06-08T13:58:26.540Z,43.10
2019-06-08T14:00:50.346Z,43.60
2019-06-08T14:03:21.284Z,43.40
2019-06-08T14:05:49.307Z,43.20
2019-06-08T14:08:20.511Z,43.00
2019-06-08T14:10:48.374Z,42.50
2019-06-08T14:13:19.748Z,41.60
2019-06-08T14:15:48.788Z,42.00
2019-06-08T14:18:21.294Z,42.50
2019-06-08T14:20:48.459Z,43.20
2019-06-08T14:23:19.692Z,41.40
2019-06-08T14:25:56.234Z,40.50
2019-06-08T14:28:19.771Z,40.60
2019-06-08T14:30:48.094Z,41.30
2019-06-08T14:33:21.714Z,42.70
2019-06-08T14:35:47.811Z,40.20
2019-06-08T14:38:19.459Z,40.10
2019-06-08T14:40:47.504Z,40.30
2019-06-08T14:43:17.741Z,41.50
2019-06-08T14:45:46.587Z,40.80
2019-06-08T14:48:15.377Z,40.40
2019-06-08T14:50:44.031Z,41.30
2019-06-08T14:53:12.702Z,40.00
2019-06-08T14:55:41.318Z,39.50
2019-06-08T14:58:09.979Z,40.30
2019-06-08T15:00:38.675Z,39.80
2019-06-08T15:03:07.792Z,37.70
2019-06-08T15:05:36.660Z,38.70
2019-06-08T15:08:08.173Z,38.00
2019-06-08T15:10:38.288Z,38.30
2019-06-08T15:13:07.717Z,39.60
2019-06-08T15:15:38.100Z,38.70
2019-06-08T15:18:10.582Z,39.30
2019-06-08T15:20:37.970Z,39.40
2019-06-08T15:23:08.271Z,40.00
2019-06-08T15:25:38.715Z,39.40
2019-06-08T15:28:08.201Z,40.50
2019-06-08T15:30:38.023Z,39.70
2019-06-08T15:33:06.980Z,39.60
2019-06-08T15:35:37.672Z,39.40
2019-06-08T15:38:08.139Z,40.60
2019-06-08T15:40:37.875Z,41.00
2019-06-08T15:43:08.674Z,39.70
2019-06-08T15:45:36.982Z,38.40
2019-06-08T15:48:07.798Z,39.90
2019-06-08T15:50:37.869Z,40.10
2019-06-08T15:53:08.428Z,39.50
2019-06-08T15:55:37.987Z,39.50
2019-06-08T15:58:08.956Z,39.50
2019-06-08T16:00:37.376Z,39.30
2019-06-08T16:03:05.996Z,39.40
2019-06-08T16:05:34.656Z,42.00
2019-06-08T16:08:03.359Z,39.60
2019-06-08T16:10:32.301Z,40.20
2019-06-08T16:13:01.154Z,40.10
2019-06-08T16:15:30.918Z,39.70
2019-06-08T16:17:59.804Z,39.80
2019-06-08T16:20:29.475Z,39.30
2019-06-08T16:22:58.307Z,39.60
2019-06-08T16:25:27.557Z,39.20
2019-06-08T16:27:59.870Z,39.40
2019-06-08T16:30:27.197Z,39.60
2019-06-08T16:32:55.827Z,41.30
2019-06-08T16:35:24.606Z,42.50
2019-06-08T16:37:53.263Z,42.50
2019-06-08T16:40:22.085Z,40.60
2019-06-08T16:42:50.812Z,41.60
2019-06-08T16:45:19.544Z,41.70
2019-06-08T16:47:48.188Z,41.40
2019-06-08T16:50:24.557Z,41.60
2019-06-08T16:52:47.509Z,41.80
2019-06-08T16:55:16.337Z,42.20
2019-06-08T16:57:44.962Z,42.30
2019-06-08T17:00:31.501Z,42.30
2019-06-08T17:02:44.582Z,42.30
2019-06-08T17:05:13.484Z,41.70
2019-06-08T17:07:42.167Z,40.80
2019-06-08T17:10:11.831Z,41.70
2019-06-08T17:12:40.477Z,42.20
2019-06-08T17:15:09.352Z,42.10
2019-06-08T17:17:38.601Z,42.30
2019-06-08T17:20:07.935Z,42.20
2019-06-08T17:22:36.897Z,41.30
2019-06-08T17:25:08.392Z,42.10
2019-06-08T17:27:37.256Z,41.90
2019-06-08T17:30:08.889Z,42.40
2019-06-08T17:32:38.511Z,42.00
2019-06-08T17:35:08.196Z,41.30
2019-06-08T17:37:38.092Z,41.70
2019-06-08T17:40:07.839Z,42.50
2019-06-08T17:42:37.634Z,42.60
2019-06-08T17:45:09.768Z,42.60
2019-06-08T17:47:38.581Z,42.90
2019-06-08T17:50:08.146Z,42.80
2019-06-08T17:52:37.036Z,41.40
2019-06-08T17:55:06.658Z,42.20
2019-06-08T17:57:47.383Z,43.40
2019-06-08T18:00:09.919Z,42.80
2019-06-08T18:02:42.040Z,42.90
2019-06-08T18:05:09.679Z,43.10
2019-06-08T18:07:40.204Z,43.40
2019-06-08T18:10:09.683Z,43.90
2019-06-08T18:12:41.062Z,42.90
2019-06-08T18:15:09.567Z,44.20
2019-06-08T18:17:42.030Z,44.00
2019-06-08T18:20:12.988Z,43.40
2019-06-08T18:22:44.408Z,43.20
2019-06-08T18:25:12.187Z,42.70
2019-06-08T18:27:43.577Z,42.30
2019-06-08T18:30:12.590Z,43.90
2019-06-08T18:32:42.460Z,44.10
2019-06-08T18:35:12.231Z,43.40
2019-06-08T18:37:41.388Z,44.50
2019-06-08T18:40:12.414Z,44.20
2019-06-08T18:42:42.638Z,44.20
2019-06-08T18:45:12.191Z,44.40
2019-06-08T18:47:41.986Z,44.70
2019-06-08T18:50:11.567Z,53.60
2019-06-08T18:52:42.202Z,56.70
2019-06-08T18:55:11.046Z,58.20
2019-06-08T18:57:41.096Z,60.10
2019-06-08T19:00:11.700Z,60.40
2019-06-08T19:02:43.292Z,60.30
2019-06-08T19:05:11.071Z,61.90
2019-06-08T19:07:41.246Z,61.00
2019-06-08T19:10:10.068Z,60.90
2019-06-08T19:12:41.122Z,61.60
2019-06-08T19:15:11.520Z,62.40
2019-06-08T19:17:45.776Z,63.70
2019-06-08T19:20:09.721Z,63.20
2019-06-08T19:22:42.951Z,62.40
2019-06-08T19:25:08.814Z,62.70
2019-06-08T19:27:43.913Z,62.60
2019-06-08T19:30:08.015Z,62.60
2019-06-08T19:32:38.920Z,64.00
2019-06-08T19:35:07.379Z,64.00
2019-06-08T19:37:36.083Z,64.10
2019-06-08T19:40:07.566Z,64.30
2019-06-08T19:42:44.670Z,65.40
2019-06-08T19:45:08.711Z,61.50
2019-06-08T19:47:38.160Z,62.20
2019-06-08T19:50:07.949Z,62.80
2019-06-08T19:52:41.069Z,63.00
2019-06-08T19:55:08.155Z,61.50
2019-06-08T19:57:37.046Z,61.60
2019-06-08T20:00:09.136Z,61.10
2019-06-08T20:02:37.796Z,61.90
2019-06-08T20:05:07.673Z,63.90
2019-06-08T20:07:37.875Z,65.40
2019-06-08T20:10:08.287Z,67.40
2019-06-08T20:12:37.650Z,66.00
2019-06-08T20:15:08.708Z,66.90
2019-06-08T20:17:37.445Z,66.00
2019-06-08T20:20:10.688Z,67.00
2019-06-08T20:22:37.921Z,68.90
2019-06-08T20:25:10.442Z,68.50
2019-06-08T20:27:37.555Z,67.60
2019-06-08T20:30:09.550Z,66.70
2019-06-08T20:32:37.967Z,64.90
2019-06-08T20:35:08.118Z,63.90
2019-06-08T20:37:37.659Z,63.50
2019-06-08T20:40:13.614Z,62.50
2019-06-08T20:42:38.022Z,62.60
2019-06-08T20:45:08.157Z,62.50
2019-06-08T20:47:39.086Z,62.50
2019-06-08T20:50:07.750Z,63.10
2019-06-08T20:52:37.812Z,62.90
2019-06-08T20:55:07.943Z,63.10
2019-06-08T20:57:36.603Z,64.70
2019-06-08T21:00:11.922Z,64.90
2019-06-08T21:02:39.783Z,62.60
2019-06-08T21:05:08.631Z,68.20
2019-06-08T21:07:37.318Z,67.00
2019-06-08T21:10:08.538Z,64.90
2019-06-08T21:12:37.913Z,63.90
2019-06-08T21:15:07.847Z,63.10
2019-06-08T21:17:38.439Z,63.00
2019-06-08T21:20:08.532Z,62.00
2019-06-08T21:22:37.592Z,60.50
2019-06-08T21:25:08.729Z,61.40
2019-06-08T21:27:38.548Z,61.30
2019-06-08T21:30:19.790Z,60.00
2019-06-08T21:32:38.663Z,60.50
2019-06-08T21:35:07.657Z,71.00
2019-06-08T21:37:37.741Z,66.70
2019-06-08T21:40:09.231Z,62.10
2019-06-08T21:42:37.858Z,61.60
2019-06-08T21:45:09.949Z,61.40
2019-06-08T21:47:38.596Z,62.20
2019-06-08T21:50:08.133Z,61.70
2019-06-08T21:52:37.039Z,61.50
2019-06-08T21:55:07.299Z,61.50
2019-06-08T21:57:37.170Z,62.50
2019-06-08T22:00:22.874Z,63.00
2019-06-08T22:02:38.740Z,63.40
2019-06-08T22:05:08.366Z,63.10
2019-06-08T22:07:37.689Z,65.40
2019-06-08T22:10:07.690Z,64.70
2019-06-08T22:12:40.057Z,64.10
2019-06-08T22:15:07.514Z,63.20
2019-06-08T22:17:38.253Z,60.00
2019-06-08T22:20:08.242Z,60.80
2019-06-08T22:22:37.884Z,61.50
2019-06-08T22:25:08.228Z,62.00
2019-06-08T22:27:38.154Z,61.60
2019-06-08T22:30:11.564Z,64.00
2019-06-08T22:32:38.586Z,62.80
2019-06-08T22:35:08.061Z,62.90
2019-06-08T22:37:38.025Z,63.10
2019-06-08T22:40:08.337Z,63.30
2019-06-08T22:42:37.592Z,62.60
2019-06-08T22:45:08.996Z,62.60
2019-06-08T22:47:38.735Z,62.30
2019-06-08T22:50:08.330Z,62.80
2019-06-08T22:52:37.666Z,63.00
2019-06-08T22:55:10.715Z,63.10
2019-06-08T22:57:37.811Z,63.00
2019-06-08T23:00:16.563Z,63.50
2019-06-08T23:02:38.654Z,64.30
2019-06-08T23:05:09.177Z,64.90
2019-06-08T23:07:38.158Z,64.50
2019-06-08T23:10:11.038Z,64.70
2019-06-08T23:12:39.670Z,64.90
2019-06-08T23:15:08.686Z,64.90
2019-06-08T23:17:38.569Z,65.30
2019-06-08T23:20:08.854Z,65.90
2019-06-08T23:22:38.535Z,65.90
2019-06-08T23:25:09.530Z,65.70
2019-06-08T23:27:38.407Z,65.60
2019-06-08T23:30:10.257Z,66.00
2019-06-08T23:32:39.195Z,66.60
2019-06-08T23:35:09.448Z,67.00
2019-06-08T23:37:38.332Z,66.80
2019-06-08T23:40:08.150Z,66.30
2019-06-08T23:42:38.403Z,65.90
2019-06-08T23:45:10.508Z,66.30
2019-06-08T23:47:38.831Z,66.30
2019-06-08T23:50:10.942Z,66.80
2019-06-08T23:52:38.607Z,66.50
2019-06-08T23:55:10.567Z,66.40
2019-06-08T23:57:38.255Z,67.10
